Tunis, Tunisia
Current Conditions -  °F | °C
As of 1:00 PM on Friday 21 Nov 2014 (Local Time) from DTTA Reporting Station
Clear Clear  
Wind Chill: 75°   Ceiling: Unl
Heat Index: 75°   Visibility: 6mi
Dew Point: 59°   Wind: 6mph
Humidity: 57%   Direction: 170°S
Pressure: 30.12"   Gusts: NA
Location:  36.84°N, 10.22°E
Report Text: DTTA 211200Z 17005KT 130V190 CAVOK 24/15 Q1020 NOSIG
Loading
Personal Weather Stations






























Interactive Weather Map New forecast layout! Learn more

10-Day Weather Forecast

Advertisements
Track Severe Weather on mobile